Time;durP1;ratioP1;P1;durP2;ratioP2;P2;SDS_P1;SDS_P2;PMS_P1;PMS_P2;Temp;Humidity;BMP_temperature;BMP_pressure;BME280_temperature;BME280_humidity;BME280_pressure;Samples;Min_cycle;Max_cycle;Signal;HPM_P1;HPM_P2
2022/08/14 00:02:04;;;;;;;8.43;4.40;;;23.40;46.70;;;;;;5025050;28;20307;-89
2022/08/14 00:04:32;;;;;;;4.25;3.88;;;23.40;46.80;;;;;;5026687;28;20025;-91
2022/08/14 00:06:58;;;;;;;4.20;3.70;;;23.30;46.80;;;;;;5010301;28;20025;-88
2022/08/14 00:09:24;;;;;;;8.30;4.28;;;23.30;46.90;;;;;;5027684;28;20041;-89
2022/08/14 00:11:50;;;;;;;4.60;3.45;;;23.30;46.90;;;;;;4993091;28;20444;-88
2022/08/14 00:14:16;;;;;;;3.28;3.05;;;23.30;47.00;;;;;;4994027;28;20044;-89
2022/08/14 00:16:42;;;;;;;3.20;2.97;;;23.20;47.00;;;;;;4985362;28;20481;-89
2022/08/14 00:19:09;;;;;;;3.70;3.22;;;23.20;47.00;;;;;;5011581;28;20055;-89
2022/08/14 00:21:35;;;;;;;3.55;3.03;;;23.20;47.10;;;;;;5010575;28;20029;-90
2022/08/14 00:24:03;;;;;;;7.10;3.40;;;23.10;47.00;;;;;;5014147;28;20299;-91
2022/08/14 00:26:29;;;;;;;4.22;3.80;;;23.10;47.10;;;;;;4978867;28;20029;-85
2022/08/14 00:28:55;;;;;;;3.53;3.22;;;23.10;47.70;;;;;;5027233;28;20041;-87
2022/08/14 00:31:22;;;;;;;4.10;3.70;;;23.10;47.10;;;;;;5027964;28;20033;-88
2022/08/14 00:33:48;;;;;;;6.15;3.88;;;23.10;47.20;;;;;;4988581;28;20051;-90
2022/08/14 00:36:14;;;;;;;3.83;3.22;;;23.10;47.20;;;;;;5009333;28;20322;-89
2022/08/14 00:38:40;;;;;;;7.25;3.60;;;23.00;47.10;;;;;;5010452;28;20091;-92
2022/08/14 00:41:08;;;;;;;3.88;3.22;;;22.90;47.50;;;;;;4988604;28;20053;-92
2022/08/14 00:43:35;;;;;;;4.10;3.50;;;22.90;47.10;;;;;;5015718;28;20090;-91
2022/08/14 00:46:08;;;;;;;6.05;3.15;;;22.80;46.90;;;;;;5017104;28;20037;-93
2022/08/14 00:48:34;;;;;;;;;;;22.80;47.00;;;;;;5001877;28;20029;-92
2022/08/14 00:51:00;;;;;;;3.97;3.40;;;22.70;46.70;;;;;;5015374;28;19913;-93
2022/08/14 00:53:26;;;;;;;4.07;3.67;;;22.70;46.70;;;;;;4995571;28;20531;-93
2022/08/14 00:55:54;;;;;;;3.58;3.28;;;22.60;46.60;;;;;;4996057;28;20040;-94
2022/08/14 00:58:30;;;;;;;3.53;3.22;;;22.60;46.80;;;;;;5010825;28;20049;-93
2022/08/14 01:01:03;;;;;;;3.47;3.17;;;22.50;46.70;;;;;;5000653;28;20033;-92
2022/08/14 01:03:30;;;;;;;3.38;3.08;;;22.50;46.90;;;;;;5009140;28;20037;-92
2022/08/14 01:05:58;;;;;;;3.80;3.40;;;22.40;46.80;;;;;;5009060;28;20034;-90
2022/08/14 01:08:29;;;;;;;4.70;3.53;;;22.40;46.90;;;;;;4981699;28;20049;-90
2022/08/14 01:10:56;;;;;;;5.97;3.35;;;22.30;46.80;;;;;;5005229;28;20025;-91
2022/08/14 01:13:34;;;;;;;4.40;3.47;;;22.30;46.80;;;;;;4977152;28;20078;-91
2022/08/14 01:16:08;;;;;;;4.97;3.58;;;22.20;46.80;;;;;;5010293;28;20151;-91
2022/08/14 01:21:41;;;;;;;3.70;3.35;;;22.10;46.80;;;;;;5014479;28;20033;-89
2022/08/14 01:24:09;;;;;;;5.70;3.10;;;22.10;47.00;;;;;;4994252;28;20029;-89
2022/08/14 01:26:36;;;;;;;4.18;3.20;;;22.00;46.80;;;;;;5010317;28;20040;-89
2022/08/14 01:29:04;;;;;;;3.08;2.88;;;22.00;46.90;;;;;;4991509;28;20042;-88
2022/08/14 01:31:33;;;;;;;4.15;3.75;;;22.00;47.00;;;;;;5014690;28;20044;-89
2022/08/14 01:34:02;;;;;;;7.75;3.10;;;21.90;46.90;;;;;;5007725;28;20033;-87
2022/08/14 01:36:35;;;;;;;3.65;3.00;;;21.90;47.00;;;;;;4991511;28;20188;-86
2022/08/14 01:39:02;;;;;;;;;;;21.90;47.00;;;;;;5008484;28;20069;-88
2022/08/14 01:41:28;;;;;;;3.20;2.83;;;21.80;46.70;;;;;;5008154;28;19939;-86
2022/08/14 01:44:00;;;;;;;3.67;3.33;;;21.80;46.70;;;;;;4991884;28;20045;-88
2022/08/14 01:46:33;;;;;;;3.20;3.00;;;21.80;46.90;;;;;;5026996;28;20110;-88
2022/08/14 01:49:00;;;;;;;3.35;3.10;;;21.70;46.70;;;;;;5005008;28;20041;-89
2022/08/14 01:51:27;;;;;;;4.95;3.55;;;21.70;46.70;;;;;;4993392;28;20040;-88
2022/08/14 01:53:59;;;;;;;5.47;3.50;;;21.70;46.80;;;;;;5010005;28;20028;-91
2022/08/14 01:56:37;;;;;;;4.18;3.10;;;21.70;47.00;;;;;;5016191;28;20041;-87
2022/08/14 01:59:13;;;;;;;3.83;2.88;;;21.60;46.80;;;;;;5009243;28;20046;-90
2022/08/14 02:01:39;;;;;;;4.25;3.58;;;21.60;47.00;;;;;;5009741;28;20037;-88
2022/08/14 02:04:05;;;;;;;3.25;3.00;;;21.50;46.80;;;;;;4991477;28;20403;-89
2022/08/14 02:06:31;;;;;;;5.07;3.22;;;21.50;46.80;;;;;;4993825;28;20026;-88
2022/08/14 02:08:58;;;;;;;4.03;3.25;;;21.40;46.70;;;;;;4999923;28;20033;-88
2022/08/14 02:11:25;;;;;;;3.60;2.65;;;21.40;46.80;;;;;;5013192;28;20114;-89
2022/08/14 02:14:06;;;;;;;3.10;2.83;;;21.40;46.90;;;;;;4996622;28;20037;-88
2022/08/14 02:16:37;;;;;;;3.70;3.40;;;21.30;46.90;;;;;;4996600;28;20034;-89
2022/08/14 02:19:16;;;;;;;3.30;2.67;;;21.30;47.50;;;;;;4997472;28;20033;-89
2022/08/14 02:21:45;;;;;;;3.85;2.88;;;21.20;46.90;;;;;;4980575;28;20065;-88
2022/08/14 02:24:13;;;;;;;3.33;2.70;;;21.20;47.00;;;;;;5004930;28;20307;-88
2022/08/14 02:26:46;;;;;;;3.20;2.92;;;21.20;47.10;;;;;;5038715;28;20037;-88
2022/08/14 02:29:17;;;;;;;3.95;3.17;;;21.20;47.10;;;;;;4974711;28;20121;-88
2022/08/14 02:31:51;;;;;;;3.92;3.17;;;21.20;47.20;;;;;;4998340;28;20067;-89
2022/08/14 02:34:21;;;;;;;4.03;3.03;;;21.10;47.10;;;;;;5000185;28;20087;-89
2022/08/14 02:36:50;;;;;;;4.60;3.03;;;21.10;47.20;;;;;;4989422;28;20040;-90
2022/08/14 02:39:16;;;;;;;4.68;3.47;;;21.10;47.30;;;;;;5014631;28;20465;-87
2022/08/14 02:41:42;;;;;;;4.15;3.30;;;21.00;47.20;;;;;;5028189;28;20041;-86
2022/08/14 02:44:10;;;;;;;5.93;3.90;;;20.90;47.10;;;;;;4990450;28;20025;-85
2022/08/14 02:46:38;;;;;;;3.72;3.22;;;20.90;47.20;;;;;;5032692;28;20030;-85
2022/08/14 02:49:05;;;;;;;10.25;3.38;;;20.90;47.30;;;;;;5030892;28;20485;-87
2022/08/14 02:51:32;;;;;;;5.95;3.10;;;20.90;47.40;;;;;;5036946;28;20033;-85
2022/08/14 02:53:59;;;;;;;4.57;3.53;;;20.90;47.50;;;;;;5040988;28;20089;-85
2022/08/14 02:56:26;;;;;;;4.10;3.17;;;20.80;47.40;;;;;;5035223;28;20063;-86
2022/08/14 02:58:55;;;;;;;3.35;3.00;;;20.80;47.40;;;;;;5053392;28;20336;-85
2022/08/14 03:01:23;;;;;;;3.40;3.10;;;20.80;47.60;;;;;;5014990;28;20059;-86
2022/08/14 03:03:50;;;;;;;3.90;3.45;;;20.70;47.40;;;;;;5005682;28;20071;-85
2022/08/14 03:06:19;;;;;;;3.63;3.30;;;20.70;47.50;;;;;;5032275;28;20057;-86
2022/08/14 03:08:45;;;;;;;3.70;3.40;;;20.70;47.70;;;;;;5030262;28;20108;-86
2022/08/14 03:11:12;;;;;;;3.85;3.20;;;20.60;48.20;;;;;;5024523;28;20117;-85
2022/08/14 03:13:42;;;;;;;3.85;3.28;;;20.60;47.60;;;;;;4996162;28;20071;-87
2022/08/14 03:16:13;;;;;;;3.70;3.20;;;20.50;47.60;;;;;;5001867;28;20033;-89
2022/08/14 03:18:44;;;;;;;4.28;2.90;;;20.50;47.70;;;;;;5038392;28;20043;-88
2022/08/14 03:21:14;;;;;;;2.85;2.65;;;20.50;47.80;;;;;;5037015;28;20132;-93
2022/08/14 03:23:42;;;;;;;4.93;3.13;;;20.40;47.70;;;;;;5005206;28;20052;-88
2022/08/14 03:26:14;;;;;;;3.20;2.95;;;20.40;47.80;;;;;;5013745;28;20040;-86
2022/08/14 03:28:42;;;;;;;4.40;2.83;;;20.40;47.90;;;;;;4997522;28;20033;-86
2022/08/14 03:31:09;;;;;;;4.13;3.47;;;20.40;47.80;;;;;;5012394;28;20423;-85
2022/08/14 03:33:37;;;;;;;2.97;2.67;;;20.40;47.90;;;;;;5018476;28;20034;-86
2022/08/14 03:36:08;;;;;;;3.20;2.90;;;20.40;48.00;;;;;;5014334;28;20627;-83
2022/08/14 03:38:41;;;;;;;3.75;3.45;;;20.30;47.80;;;;;;5021784;28;20338;-83
2022/08/14 03:41:20;;;;;;;7.60;3.47;;;20.30;48.00;;;;;;5003727;28;20026;-83
2022/08/14 03:43:49;;;;;;;4.50;3.30;;;20.20;47.90;;;;;;4995183;28;20487;-85
2022/08/14 03:46:16;;;;;;;3.42;3.13;;;20.20;47.90;;;;;;5012736;28;20098;-84
2022/08/14 03:48:43;;;;;;;5.40;3.20;;;20.10;47.90;;;;;;5014998;28;20037;-85
2022/08/14 03:51:11;;;;;;;4.95;3.30;;;20.10;48.00;;;;;;5013746;28;20036;-88
2022/08/14 03:53:44;;;;;;;5.93;3.67;;;20.10;48.10;;;;;;5034138;28;20033;-87
2022/08/14 03:56:13;;;;;;;3.38;3.05;;;20.00;48.10;;;;;;5020520;28;20705;-87
2022/08/14 03:58:44;;;;;;;3.53;3.22;;;20.00;48.20;;;;;;5022709;28;20129;-88
2022/08/14 04:01:12;;;;;;;4.20;3.50;;;20.00;48.30;;;;;;5002776;28;20585;-86
2022/08/14 04:03:37;;;;;;;4.15;3.05;;;19.90;48.10;;;;;;5000927;28;20036;-87
2022/08/14 04:06:07;;;;;;;4.47;3.45;;;19.90;48.30;;;;;;5007184;28;20026;-87
2022/08/14 04:08:37;;;;;;;3.75;3.30;;;19.80;48.20;;;;;;5012036;28;20583;-88
2022/08/14 04:11:04;;;;;;;3.97;3.47;;;19.80;48.40;;;;;;5017348;28;20025;-87
2022/08/14 04:13:34;;;;;;;3.65;3.17;;;19.80;48.40;;;;;;5010200;28;20461;-85
2022/08/14 04:16:05;;;;;;;4.68;3.75;;;19.80;48.50;;;;;;4994443;28;20032;-86
2022/08/14 04:18:32;;;;;;;5.45;4.05;;;19.80;48.60;;;;;;5022647;28;20362;-86
2022/08/14 04:20:58;;;;;;;3.33;3.03;;;19.70;48.50;;;;;;4999957;28;20033;-86
2022/08/14 04:23:24;;;;;;;4.25;3.85;;;19.70;48.60;;;;;;5003508;28;20108;-87
2022/08/14 04:25:53;;;;;;;8.82;3.40;;;19.70;48.80;;;;;;5029742;28;20032;-87
2022/08/14 04:28:20;;;;;;;4.50;3.28;;;19.60;48.70;;;;;;5019841;28;20451;-89
2022/08/14 04:30:47;;;;;;;4.43;3.80;;;19.60;48.70;;;;;;4981251;28;20029;-88
2022/08/14 04:33:15;;;;;;;5.93;3.53;;;19.60;48.80;;;;;;5027466;28;20041;-86
2022/08/14 04:35:41;;;;;;;4.20;3.80;;;19.60;48.90;;;;;;4994168;28;20025;-87
2022/08/14 04:43:41;;;;;;;4.28;3.95;;;19.50;48.90;;;;;;5014014;28;20029;-86
2022/08/14 04:46:13;;;;;;;4.78;4.25;;;19.50;48.90;;;;;;5031057;28;20059;-88
2022/08/14 04:48:41;;;;;;;3.88;3.58;;;19.50;49.00;;;;;;5010066;28;20036;-88
2022/08/14 04:51:09;;;;;;;5.05;4.20;;;19.50;49.00;;;;;;5026377;28;20025;-88
2022/08/14 04:53:40;;;;;;;3.90;3.17;;;19.40;48.90;;;;;;5033494;28;20113;-87
2022/08/14 04:56:06;;;;;;;4.50;4.10;;;19.40;49.00;;;;;;5011873;28;20041;-88
2022/08/14 04:58:34;;;;;;;4.28;3.88;;;19.40;49.00;;;;;;5027488;28;20117;-88
2022/08/14 05:01:05;;;;;;;6.70;3.65;;;19.50;49.20;;;;;;5031150;28;20021;-87
2022/08/14 05:03:33;;;;;;;5.45;4.70;;;19.40;49.10;;;;;;5012275;28;20039;-86
2022/08/14 05:06:01;;;;;;;3.95;3.65;;;19.40;49.10;;;;;;4994263;28;20021;-86
2022/08/14 05:08:28;;;;;;;4.18;3.88;;;19.40;49.20;;;;;;4975018;28;20037;-87
2022/08/14 05:10:56;;;;;;;4.22;3.83;;;19.40;49.40;;;;;;4991375;28;20087;-84
2022/08/14 05:13:24;;;;;;;4.43;3.95;;;19.40;49.40;;;;;;5012069;28;20042;-87
2022/08/14 05:15:52;;;;;;;4.55;4.15;;;19.40;49.50;;;;;;4992726;28;20029;-84
2022/08/14 05:18:20;;;;;;;4.30;3.90;;;19.30;49.30;;;;;;5008961;28;20037;-85
2022/08/14 05:20:49;;;;;;;7.00;4.43;;;19.30;49.50;;;;;;4983829;28;20380;-84
2022/08/14 05:23:18;;;;;;;4.55;4.10;;;19.30;49.50;;;;;;5025097;28;20146;-85
2022/08/14 05:25:46;;;;;;;5.75;4.43;;;19.40;49.80;;;;;;5015820;28;20048;-83
2022/08/14 05:28:24;;;;;;;5.10;4.28;;;19.30;49.60;;;;;;4984813;28;20025;-88
2022/08/14 05:30:56;;;;;;;5.13;3.88;;;19.40;50.00;;;;;;5025744;28;20546;-93
2022/08/14 05:33:24;;;;;;;4.70;4.30;;;19.40;49.80;;;;;;5014424;28;20040;-92
2022/08/14 05:35:51;;;;;;;4.47;4.07;;;19.50;50.50;;;;;;4999465;28;20062;-86
2022/08/14 05:38:20;;;;;;;5.30;4.80;;;19.50;49.90;;;;;;5027442;28;20495;-90
2022/08/14 05:40:48;;;;;;;5.30;4.78;;;19.50;49.80;;;;;;4998389;28;20033;-85
2022/08/14 05:43:15;;;;;;;5.63;4.00;;;19.60;50.00;;;;;;5026542;28;20548;-87
2022/08/14 05:45:41;;;;;;;4.93;4.30;;;19.60;50.00;;;;;;5029063;28;20040;-87
2022/08/14 05:48:12;;;;;;;4.80;4.32;;;19.60;50.00;;;;;;5028693;28;20100;-82
2022/08/14 05:50:38;;;;;;;3.78;3.47;;;19.70;50.10;;;;;;5016456;28;20426;-83
2022/08/14 05:53:04;;;;;;;6.25;4.07;;;19.70;50.10;;;;;;5019383;28;20103;-80
2022/08/14 05:55:30;;;;;;;5.15;4.18;;;19.80;50.40;;;;;;5010738;28;20044;-81
2022/08/14 05:58:03;;;;;;;4.20;3.90;;;19.90;50.40;;;;;;5031830;28;20081;-82
2022/08/14 06:00:39;;;;;;;;;;;20.00;50.50;;;;;;5012861;28;20033;-81
2022/08/14 06:03:13;;;;;;;4.20;3.85;;;20.10;50.30;;;;;;5015323;28;19943;-82
2022/08/14 06:05:40;;;;;;;5.07;4.13;;;20.20;50.10;;;;;;5017116;28;20021;-83
2022/08/14 06:08:22;;;;;;;6.45;4.30;;;20.30;50.30;;;;;;5029539;28;20029;-83
2022/08/14 06:10:50;;;;;;;7.00;4.40;;;20.50;50.70;;;;;;5030628;28;20498;-86
2022/08/14 06:13:18;;;;;;;5.55;4.45;;;20.70;50.60;;;;;;5008240;28;20029;-86
2022/08/14 06:15:45;;;;;;;4.28;3.92;;;20.80;50.60;;;;;;4987467;28;20507;-88
2022/08/14 06:18:11;;;;;;;4.65;4.22;;;21.00;50.70;;;;;;4983378;28;20056;-93
2022/08/14 06:20:38;;;;;;;4.75;3.83;;;21.20;50.70;;;;;;5028039;28;20127;-87
2022/08/14 06:23:05;;;;;;;4.85;3.75;;;21.40;50.70;;;;;;5034932;28;20033;-91
2022/08/14 06:25:31;;;;;;;4.32;3.97;;;21.70;50.80;;;;;;5029099;28;20101;-90
2022/08/14 06:27:57;;;;;;;5.60;4.35;;;21.90;50.70;;;;;;5006109;28;20037;-88
2022/08/14 06:30:28;;;;;;;5.07;3.85;;;22.00;50.60;;;;;;5031510;28;20031;-85
2022/08/14 06:32:54;;;;;;;4.00;3.67;;;22.30;50.90;;;;;;5032425;28;20033;-88
2022/08/14 06:35:21;;;;;;;4.82;3.90;;;22.50;50.90;;;;;;5016814;28;20040;-88
2022/08/14 06:37:56;;;;;;;4.07;3.67;;;22.70;50.80;;;;;;5015026;28;20325;-88
2022/08/14 06:40:24;;;;;;;3.50;3.20;;;22.90;50.70;;;;;;5030552;28;20029;-88
2022/08/14 06:42:52;;;;;;;4.47;3.83;;;23.10;50.60;;;;;;4999803;28;20037;-86
2022/08/14 06:45:18;;;;;;;4.10;3.70;;;23.30;50.60;;;;;;5016027;28;20036;-92
2022/08/14 06:47:45;;;;;;;6.22;3.58;;;23.40;50.50;;;;;;5014122;28;20026;-91
2022/08/14 06:50:15;;;;;;;3.47;3.22;;;23.50;50.40;;;;;;5025609;28;20028;-90
2022/08/14 06:52:42;;;;;;;4.35;3.60;;;23.70;50.40;;;;;;4997818;28;20055;-87
2022/08/14 06:55:10;;;;;;;5.70;3.67;;;23.90;50.40;;;;;;5011204;28;20094;-88
2022/08/14 06:57:38;;;;;;;4.75;2.85;;;24.20;50.40;;;;;;5029690;28;20133;-92
2022/08/14 07:00:17;;;;;;;3.60;3.20;;;24.50;50.30;;;;;;5030950;28;20026;-90
2022/08/14 07:05:46;;;;;;;4.97;3.58;;;25.00;50.10;;;;;;4967051;28;20562;-89
2022/08/14 07:08:27;;;;;;;5.00;3.20;;;25.20;49.70;;;;;;5033723;28;20038;-85
2022/08/14 07:10:58;;;;;;;4.28;3.88;;;25.40;49.20;;;;;;5030013;28;20026;-83
2022/08/14 07:13:25;;;;;;;3.88;3.53;;;25.70;48.90;;;;;;5034780;28;20048;-84
2022/08/14 07:15:54;;;;;;;5.85;3.53;;;25.90;48.60;;;;;;5011825;28;20029;-82
2022/08/14 07:18:30;;;;;;;3.78;3.13;;;26.00;48.30;;;;;;5029716;28;20036;-82
2022/08/14 07:20:58;;;;;;;5.28;3.60;;;26.10;48.00;;;;;;5012030;28;20025;-84
2022/08/14 07:23:25;;;;;;;4.18;3.60;;;26.30;47.70;;;;;;4996719;28;20333;-84
2022/08/14 07:25:54;;;;;;;5.13;3.47;;;26.50;47.40;;;;;;5030561;28;20037;-82
2022/08/14 07:28:27;;;;;;;4.63;3.60;;;26.70;47.10;;;;;;5018464;28;20029;-83
2022/08/14 07:30:56;;;;;;;4.35;3.33;;;27.00;46.70;;;;;;5011819;28;20025;-83
2022/08/14 07:33:25;;;;;;;4.20;3.05;;;27.20;46.30;;;;;;4992274;28;20030;-83
2022/08/14 07:35:52;;;;;;;6.90;4.25;;;27.40;45.90;;;;;;5017844;28;20025;-81
2022/08/14 07:38:20;;;;;;;6.93;3.30;;;27.60;45.60;;;;;;5001018;28;20028;-83
2022/08/14 07:40:50;;;;;;;9.27;3.90;;;27.80;45.30;;;;;;5013786;28;20187;-83
2022/08/14 07:43:16;;;;;;;4.07;3.65;;;27.90;45.10;;;;;;5007149;28;20120;-85
2022/08/14 07:45:43;;;;;;;5.75;3.97;;;28.10;45.10;;;;;;5014621;28;20033;-85
2022/08/14 07:48:09;;;;;;;9.63;3.55;;;28.20;45.10;;;;;;5007422;28;20033;-85
2022/08/14 07:50:35;;;;;;;7.35;3.63;;;28.30;45.00;;;;;;4979297;28;20088;-85
2022/08/14 07:53:02;;;;;;;3.30;3.05;;;28.50;44.80;;;;;;5009477;28;20091;-85
2022/08/14 07:55:28;;;;;;;6.07;3.38;;;28.70;44.60;;;;;;5008113;28;20132;-84
2022/08/14 07:57:55;;;;;;;3.25;2.95;;;28.90;44.50;;;;;;4992660;28;20053;-84
2022/08/14 08:00:23;;;;;;;4.45;3.03;;;29.00;44.20;;;;;;5007169;28;20533;-85
2022/08/14 08:02:52;;;;;;;4.55;3.17;;;29.10;44.00;;;;;;5025296;28;20515;-86
2022/08/14 08:05:20;;;;;;;5.82;3.17;;;29.20;43.90;;;;;;5023900;28;20049;-91
2022/08/14 08:07:47;;;;;;;5.82;3.35;;;29.30;43.70;;;;;;5001285;28;20384;-84
2022/08/14 08:10:31;;;;;;;3.95;3.15;;;29.40;43.40;;;;;;5002603;28;20026;-84
2022/08/14 08:13:09;;;;;;;4.55;4.05;;;29.60;42.90;;;;;;4983048;28;20562;-91
2022/08/14 08:15:39;;;;;;;9.15;4.53;;;29.80;42.60;;;;;;5012894;28;20029;-93
2022/08/14 08:18:07;;;;;;;7.32;4.78;;;29.90;42.20;;;;;;5010599;28;20025;-91
2022/08/14 08:20:45;;;;;;;6.28;3.88;;;30.10;41.90;;;;;;5010367;28;20075;-87
2022/08/14 08:23:14;;;;;;;13.20;5.97;;;30.10;41.50;;;;;;4987636;28;20095;-88
2022/08/14 08:25:42;;;;;;;8.55;5.15;;;29.90;41.50;;;;;;5014347;28;20408;-88
2022/08/14 08:28:26;;;;;;;7.18;4.95;;;29.70;41.60;;;;;;5012940;28;20032;-87
2022/08/14 08:30:59;;;;;;;7.65;4.40;;;29.50;41.60;;;;;;5026201;28;20040;-87
2022/08/14 08:33:27;;;;;;;5.55;4.47;;;29.30;41.80;;;;;;5025050;28;20391;-88
2022/08/14 08:35:58;;;;;;;5.78;4.45;;;29.20;42.00;;;;;;4976822;28;20033;-90
2022/08/14 08:38:25;;;;;;;4.78;3.85;;;29.00;42.00;;;;;;5010991;28;20033;-89
2022/08/14 08:40:55;;;;;;;4.03;3.28;;;28.90;42.10;;;;;;5006190;28;20117;-88
2022/08/14 08:43:24;;;;;;;6.43;4.03;;;28.90;42.20;;;;;;5011589;28;20041;-87
2022/08/14 08:45:55;;;;;;;6.47;3.72;;;28.80;42.10;;;;;;4995043;28;20447;-87
2022/08/14 08:48:27;;;;;;;7.03;4.35;;;28.70;42.10;;;;;;4993735;28;20029;-87
2022/08/14 08:50:57;;;;;;;4.25;2.92;;;28.70;42.10;;;;;;5027601;28;20033;-89
2022/08/14 08:53:31;;;;;;;5.72;3.33;;;28.60;42.00;;;;;;5026908;28;20042;-88
2022/08/14 08:55:57;;;;;;;3.78;3.47;;;28.70;42.00;;;;;;5010721;28;20040;-89
2022/08/14 08:58:23;;;;;;;3.58;2.92;;;28.70;42.00;;;;;;5026458;28;20102;-88
2022/08/14 09:00:55;;;;;;;6.75;3.65;;;28.70;41.90;;;;;;5034122;28;20021;-85
2022/08/14 09:03:27;;;;;;;3.10;2.80;;;28.70;41.80;;;;;;5008258;28;20503;-88
2022/08/14 09:06:02;;;;;;;4.80;2.85;;;28.80;41.70;;;;;;5013679;28;20029;-87
2022/08/14 09:08:34;;;;;;;3.60;3.30;;;28.80;41.50;;;;;;5001399;28;20033;-84
2022/08/14 09:11:08;;;;;;;5.25;2.50;;;28.90;41.40;;;;;;5043056;28;20033;-87
2022/08/14 09:13:35;;;;;;;3.30;2.50;;;29.00;41.30;;;;;;5044208;28;20027;-85
2022/08/14 09:16:01;;;;;;;4.70;3.03;;;29.00;41.20;;;;;;5032883;28;20479;-91
2022/08/14 09:18:27;;;;;;;3.05;2.83;;;29.10;41.10;;;;;;5030615;28;20088;-84
2022/08/14 09:20:55;;;;;;;5.28;2.80;;;29.20;41.10;;;;;;5028767;28;20087;-83
2022/08/14 09:23:22;;;;;;;3.47;2.78;;;29.20;41.00;;;;;;5014364;28;20056;-86
2022/08/14 09:25:49;;;;;;;3.03;2.72;;;29.30;41.00;;;;;;5037135;28;20037;-81
2022/08/14 09:28:17;;;;;;;5.07;2.38;;;29.30;40.90;;;;;;5051979;28;20017;-91
2022/08/14 09:30:53;;;;;;;3.22;2.92;;;29.40;41.00;;;;;;5017233;28;20399;-83
2022/08/14 09:33:46;;;;;;;2.72;2.20;;;29.40;40.90;;;;;;5023590;28;20033;-84
2022/08/14 09:36:27;;;;;;;5.47;2.53;;;29.50;41.00;;;;;;5012494;28;20045;-92
2022/08/14 09:39:15;;;;;;;3.97;2.40;;;29.50;40.80;;;;;;5028408;28;20096;-80
2022/08/14 09:42:16;;;;;;;5.25;2.20;;;29.60;40.60;;;;;;5007630;28;20333;-82
2022/08/14 09:45:22;;;;;;;3.63;2.53;;;29.60;40.70;;;;;;4976750;28;20071;-84
2022/08/14 09:47:51;;;;;;;2.83;1.88;;;29.70;40.70;;;;;;4984081;28;20041;-83
2022/08/14 09:50:28;;;;;;;2.85;2.55;;;29.70;40.70;;;;;;5012795;28;20029;-85
2022/08/14 09:53:03;;;;;;;2.97;2.65;;;29.80;40.60;;;;;;4998221;28;20044;-85
2022/08/14 09:55:33;;;;;;;2.92;2.60;;;29.80;40.40;;;;;;5005485;28;20094;-89
2022/08/14 09:58:16;;;;;;;3.33;2.33;;;29.80;40.30;;;;;;4970176;28;20512;-85
2022/08/14 10:00:47;;;;;;;4.25;2.50;;;29.90;40.10;;;;;;5022638;28;20289;-87
2022/08/14 10:03:32;;;;;;;3.65;2.50;;;29.90;40.20;;;;;;5001530;28;20036;-87
2022/08/14 10:06:16;;;;;;;4.93;2.40;;;29.90;40.10;;;;;;4994323;28;20044;-90
2022/08/14 10:08:51;;;;;;;2.67;1.98;;;30.00;40.10;;;;;;5002484;28;20451;-92
2022/08/14 10:11:24;;;;;;;3.05;2.00;;;30.00;40.00;;;;;;5001492;28;20037;-87
2022/08/14 10:13:57;;;;;;;6.18;2.40;;;30.10;40.00;;;;;;5026859;28;20289;-84
2022/08/14 10:16:27;;;;;;;3.65;2.38;;;30.20;40.00;;;;;;4994009;28;20117;-83
2022/08/14 10:19:10;;;;;;;3.28;2.40;;;30.30;40.00;;;;;;4998374;28;20041;-92
2022/08/14 10:21:40;;;;;;;4.88;2.35;;;30.30;39.90;;;;;;5010753;28;20060;-87
2022/08/14 10:24:08;;;;;;;3.95;2.33;;;30.40;39.90;;;;;;5007755;28;20029;-91
2022/08/14 10:26:35;;;;;;;3.17;2.38;;;30.50;39.80;;;;;;5007721;28;20481;-89
2022/08/14 10:29:10;;;;;;;3.40;2.78;;;30.50;39.70;;;;;;4995448;28;20493;-82
2022/08/14 10:31:36;;;;;;;2.75;2.55;;;30.60;39.70;;;;;;4999723;28;20233;-92
2022/08/14 10:34:06;;;;;;;3.40;2.38;;;30.70;39.80;;;;;;5035860;28;20090;-91
2022/08/14 10:36:37;;;;;;;9.93;2.85;;;30.80;39.70;;;;;;5038948;28;20299;-93
2022/08/14 10:39:15;;;;;;;3.63;2.88;;;30.80;39.50;;;;;;5042437;28;20113;-90
2022/08/14 10:41:43;;;;;;;12.15;10.95;;;30.90;39.50;;;;;;5029367;28;20263;-93
2022/08/14 10:44:17;;;;;;;8.80;7.85;;;30.90;39.40;;;;;;5013877;28;20021;-91
2022/08/14 10:46:46;;;;;;;7.07;6.40;;;31.00;39.30;;;;;;5030806;28;20034;-92
2022/08/14 10:49:21;;;;;;;6.40;5.57;;;31.10;39.40;;;;;;5012637;28;20247;-94
2022/08/14 10:52:18;;;;;;;5.95;4.28;;;31.10;39.20;;;;;;5025804;28;20044;-88
2022/08/14 10:54:46;;;;;;;4.40;4.00;;;31.20;39.20;;;;;;5011848;28;20461;-87
2022/08/14 10:57:16;;;;;;;5.22;3.78;;;31.30;39.20;;;;;;4993170;28;20041;-88
2022/08/14 10:59:49;;;;;;;4.97;3.85;;;31.30;39.10;;;;;;5024512;28;20041;-89
2022/08/14 11:02:29;;;;;;;4.03;3.72;;;31.40;39.00;;;;;;5013410;28;20033;-92
2022/08/14 11:04:59;;;;;;;3.53;2.95;;;31.40;38.90;;;;;;5016855;28;20036;-88
2022/08/14 11:07:25;;;;;;;5.05;3.83;;;31.50;38.90;;;;;;5015533;28;20038;-88
2022/08/14 11:10:07;;;;;;;3.80;3.00;;;31.60;38.90;;;;;;4994251;28;20035;-84
2022/08/14 11:12:51;;;;;;;5.10;3.25;;;31.70;38.60;;;;;;5016962;28;20134;-88
2022/08/14 11:15:22;;;;;;;3.88;2.80;;;31.70;39.00;;;;;;4993487;28;20037;-81
2022/08/14 11:17:50;;;;;;;6.83;2.97;;;31.70;38.30;;;;;;5014038;28;20184;-90
2022/08/14 11:20:19;;;;;;;9.52;2.38;;;31.70;38.20;;;;;;5011806;28;20358;-90
2022/08/14 11:22:45;;;;;;;3.90;3.03;;;31.70;38.00;;;;;;5001550;28;20441;-90
2022/08/14 11:25:14;;;;;;;2.83;2.40;;;31.80;38.00;;;;;;5028508;28;20025;-88
2022/08/14 11:27:43;;;;;;;3.10;2.63;;;31.80;37.80;;;;;;5028748;28;20021;-85
2022/08/14 11:30:15;;;;;;;4.03;2.38;;;31.80;37.50;;;;;;4978264;28;20431;-89
2022/08/14 11:32:44;;;;;;;5.80;2.60;;;31.90;37.30;;;;;;5033635;28;20041;-86
2022/08/14 11:35:14;;;;;;;2.75;2.40;;;32.00;37.20;;;;;;4996610;28;20059;-87
2022/08/14 11:37:58;;;;;;;6.80;2.72;;;32.00;37.00;;;;;;5017208;28;20029;-90
2022/08/14 11:40:27;;;;;;;3.70;2.13;;;32.10;36.70;;;;;;5018533;28;20034;-90
2022/08/14 11:42:54;;;;;;;2.22;2.03;;;32.10;36.60;;;;;;4995376;28;20032;-85
2022/08/14 11:45:33;;;;;;;2.15;1.77;;;32.30;36.30;;;;;;5017751;28;20029;-87
2022/08/14 11:48:01;;;;;;;2.00;1.90;;;32.30;35.90;;;;;;5027051;28;20025;-86
2022/08/14 11:50:30;;;;;;;7.22;1.70;;;32.40;35.90;;;;;;5002123;28;20454;-90
2022/08/14 11:52:59;;;;;;;2.97;1.27;;;32.50;35.90;;;;;;5011687;28;20034;-92
2022/08/14 11:55:25;;;;;;;2.17;1.35;;;32.60;35.70;;;;;;5026662;28;20059;-88
2022/08/14 11:58:02;;;;;;;8.10;1.30;;;32.70;35.40;;;;;;5028541;28;20046;-90
2022/08/14 12:00:29;;;;;;;1.50;1.10;;;32.80;34.70;;;;;;5012673;28;20053;-91
2022/08/14 12:02:57;;;;;;;1.90;1.45;;;32.80;34.40;;;;;;5008910;28;20041;-88
2022/08/14 12:05:38;;;;;;;1.85;1.30;;;32.90;34.00;;;;;;5013467;28;20030;-89
2022/08/14 12:08:08;;;;;;;2.55;1.48;;;33.00;33.50;;;;;;4995077;28;20030;-83
2022/08/14 12:10:36;;;;;;;1.27;1.17;;;33.10;34.30;;;;;;5000012;28;20025;-86
2022/08/14 12:13:21;;;;;;;2.65;1.38;;;33.20;33.60;;;;;;5028450;28;20046;-86
2022/08/14 12:15:57;;;;;;;2.75;1.20;;;33.30;33.10;;;;;;4995770;28;20029;-87
2022/08/14 12:18:47;;;;;;;2.92;1.30;;;33.30;32.70;;;;;;5016107;28;20045;-87
2022/08/14 12:21:14;;;;;;;2.45;1.25;;;33.40;31.80;;;;;;5017544;28;20037;-86
2022/08/14 12:23:40;;;;;;;1.77;1.35;;;33.50;32.10;;;;;;5019014;28;20033;-90
2022/08/14 12:26:09;;;;;;;3.92;1.50;;;33.50;32.10;;;;;;5030070;28;20022;-84
2022/08/14 12:28:38;;;;;;;4.70;1.15;;;33.60;32.30;;;;;;5011698;28;20120;-87
2022/08/14 12:31:18;;;;;;;4.65;1.20;;;33.70;32.50;;;;;;5033265;28;20872;-81
2022/08/14 12:33:59;;;;;;;5.50;1.63;;;33.80;32.00;;;;;;5029657;28;20033;-81
2022/08/14 12:36:32;;;;;;;1.40;1.10;;;33.90;31.70;;;;;;4976366;28;20036;-83
2022/08/14 12:39:03;;;;;;;2.78;1.27;;;34.00;31.80;;;;;;5010555;28;20022;-83
2022/08/14 12:41:33;;;;;;;2.38;1.60;;;34.20;31.50;;;;;;5019379;28;20021;-82
2022/08/14 12:44:05;;;;;;;4.95;2.10;;;34.30;31.50;;;;;;5029950;28;20060;-81
2022/08/14 12:46:32;;;;;;;;;;;34.30;31.40;;;;;;5007542;28;20041;-82
2022/08/14 12:49:12;;;;;;;2.33;1.70;;;34.40;31.60;;;;;;5026232;28;19913;-82
2022/08/14 12:51:39;;;;;;;3.15;1.30;;;34.40;31.50;;;;;;5024314;28;20025;-83
2022/08/14 12:54:14;;;;;;;1.27;1.02;;;34.50;31.40;;;;;;5013012;28;20029;-83
2022/08/14 12:56:40;;;;;;;1.77;1.20;;;34.70;31.00;;;;;;5007084;28;20203;-83
2022/08/14 12:59:06;;;;;;;1.98;1.00;;;34.80;30.90;;;;;;5012889;28;20041;-81
2022/08/14 13:01:34;;;;;;;2.38;0.98;;;34.90;30.50;;;;;;5025236;28;20483;-83
2022/08/14 13:04:09;;;;;;;1.45;1.25;;;35.10;30.20;;;;;;5016215;28;20038;-82
2022/08/14 13:06:36;;;;;;;1.48;1.23;;;35.20;30.00;;;;;;5024272;28;20048;-81
2022/08/14 13:09:04;;;;;;;2.28;1.10;;;35.30;29.90;;;;;;5009854;28;20033;-85
2022/08/14 13:11:51;;;;;;;1.95;1.02;;;35.40;29.60;;;;;;4991252;28;20022;-84
2022/08/14 13:14:23;;;;;;;1.50;1.20;;;35.40;29.10;;;;;;5024925;28;20034;-84
2022/08/14 13:16:52;;;;;;;;;;;35.30;29.70;;;;;;5008072;28;20034;-83